createdAt,value
2016-05-24T00:00:47.388Z,0
2016-05-24T00:01:47.812Z,0
2016-05-24T00:02:47.535Z,0
2016-05-24T00:03:47.740Z,0
2016-05-24T00:04:47.415Z,0
2016-05-24T00:05:47.745Z,0
2016-05-24T00:06:47.732Z,0
2016-05-24T00:07:47.609Z,0
2016-05-24T00:08:47.597Z,0
2016-05-24T00:09:47.803Z,0
2016-05-24T00:10:47.634Z,0
2016-05-24T00:11:47.636Z,0
2016-05-24T00:12:47.623Z,0
2016-05-24T00:13:47.798Z,0
2016-05-24T00:14:47.894Z,0
2016-05-24T00:15:47.678Z,0
2016-05-24T00:16:47.853Z,0
2016-05-24T00:17:47.669Z,0
2016-05-24T00:18:47.718Z,0
2016-05-24T00:19:47.533Z,0
2016-05-24T00:20:47.880Z,0
2016-05-24T00:21:47.711Z,0
2016-05-24T00:22:47.900Z,0
2016-05-24T00:23:47.591Z,0
2016-05-24T00:24:47.921Z,0
2016-05-24T00:25:47.768Z,0
2016-05-24T00:26:47.598Z,0
2016-05-24T00:27:47.946Z,0
2016-05-24T00:28:47.963Z,0
2016-05-24T00:29:47.669Z,0
2016-05-24T00:30:47.968Z,0
2016-05-24T00:31:47.675Z,0
2016-05-24T00:32:47.990Z,0
2016-05-24T00:33:47.993Z,0
2016-05-24T00:34:47.854Z,0
2016-05-24T00:35:47.685Z,0
2016-05-24T00:36:47.875Z,0
2016-05-24T00:37:48.019Z,0
2016-05-24T00:38:48.053Z,0
2016-05-24T00:39:48.040Z,0
2016-05-24T00:40:48.074Z,0
2016-05-24T00:41:48.061Z,0
2016-05-24T00:42:47.923Z,0
2016-05-24T00:43:48.081Z,0
2016-05-24T00:44:47.819Z,0
2016-05-24T00:45:48.150Z,0
2016-05-24T00:46:47.965Z,0
2016-05-24T00:47:47.811Z,0
2016-05-24T00:48:48.127Z,0
2016-05-24T00:49:48.005Z,0
2016-05-24T00:50:47.976Z,0
2016-05-24T00:51:48.025Z,0
2016-05-24T00:52:48.013Z,0
2016-05-24T00:53:48.030Z,0
2016-05-24T00:54:48.190Z,0
2016-05-24T00:55:48.208Z,0
2016-05-24T00:56:48.211Z,0
2016-05-24T00:57:48.213Z,0
2016-05-24T00:58:48.076Z,0
2016-05-24T00:59:48.093Z,0
2016-05-24T01:00:48.263Z,0
2016-05-24T01:01:48.310Z,0
2016-05-24T01:02:48.325Z,0
2016-05-24T01:03:48.373Z,0
2016-05-24T01:04:48.403Z,0
2016-05-24T01:05:48.458Z,0
2016-05-24T01:06:48.315Z,0
2016-05-24T01:07:48.483Z,0
2016-05-24T01:08:48.497Z,0
2016-05-24T01:09:48.338Z,0
2016-05-24T01:10:48.552Z,0
2016-05-24T01:11:48.433Z,0
2016-05-24T01:12:48.565Z,0
2016-05-24T01:13:48.571Z,0
2016-05-24T01:14:49.234Z,0
2016-05-24T01:15:48.459Z,0
2016-05-24T01:16:48.462Z,0
2016-05-24T01:17:48.637Z,0
2016-05-24T01:18:48.626Z,0
2016-05-24T01:19:48.473Z,0
2016-05-24T01:20:48.664Z,0
2016-05-24T01:21:48.652Z,0
2016-05-24T01:22:48.670Z,0
2016-05-24T01:23:48.674Z,0
2016-05-24T01:24:48.395Z,0
2016-05-24T01:25:48.680Z,0
2016-05-24T01:26:48.416Z,0
2016-05-24T01:27:48.733Z,0
2016-05-24T01:28:48.751Z,0
2016-05-24T01:29:48.895Z,0
2016-05-24T01:30:48.757Z,0
2016-05-24T01:31:48.620Z,0
2016-05-24T01:32:48.779Z,0
2016-05-24T01:33:48.797Z,0
2016-05-24T01:34:48.799Z,0
2016-05-24T01:35:48.333Z,0
2016-05-24T01:36:48.788Z,0
2016-05-24T01:37:48.823Z,0
2016-05-24T01:38:48.826Z,0
2016-05-24T01:39:48.844Z,0
2016-05-24T01:40:48.831Z,0
2016-05-24T01:41:48.724Z,0
2016-05-24T01:42:48.852Z,0
2016-05-24T01:43:48.713Z,0
2016-05-24T01:44:49.014Z,0
2016-05-24T01:45:48.891Z,0
2016-05-24T01:46:48.722Z,0
2016-05-24T01:47:48.912Z,0
2016-05-24T01:48:48.931Z,0
2016-05-24T01:49:48.793Z,0
2016-05-24T01:50:48.952Z,0
2016-05-24T01:51:48.954Z,0
2016-05-24T01:52:48.957Z,0
2016-05-24T01:53:48.834Z,0
2016-05-24T01:54:49.009Z,0
2016-05-24T01:55:48.996Z,0
2016-05-24T01:56:48.984Z,0
2016-05-24T01:57:49.017Z,0
2016-05-24T01:58:49.004Z,0
2016-05-24T01:59:49.398Z,0
2016-05-24T02:00:49.026Z,0
2016-05-24T02:01:49.044Z,0
2016-05-24T02:02:49.062Z,0
2016-05-24T02:03:48.892Z,0
2016-05-24T02:04:49.067Z,0
2016-05-24T02:05:48.929Z,0
2016-05-24T02:06:49.089Z,0
2016-05-24T02:07:48.779Z,0
2016-05-24T02:08:48.969Z,0
2016-05-24T02:09:48.955Z,0
2016-05-24T02:10:49.115Z,0
2016-05-24T02:11:48.977Z,0
2016-05-24T02:12:48.824Z,0
2016-05-24T02:13:49.014Z,0
2016-05-24T02:14:49.376Z,0
2016-05-24T02:15:49.207Z,0
2016-05-24T02:16:49.021Z,0
2016-05-24T02:17:49.212Z,0
2016-05-24T02:18:49.215Z,0
2016-05-24T02:19:49.217Z,0
2016-05-24T02:20:49.221Z,0
2016-05-24T02:21:49.223Z,0
2016-05-24T02:22:49.240Z,0
2016-05-24T02:23:49.103Z,0
2016-05-24T02:24:49.153Z,0
2016-05-24T02:25:49.093Z,0
2016-05-24T02:26:49.283Z,0
2016-05-24T02:27:49.114Z,0
2016-05-24T02:28:49.164Z,0
2016-05-24T02:29:49.792Z,0
2016-05-24T02:30:49.184Z,0
2016-05-24T02:31:49.156Z,0
2016-05-24T02:32:49.345Z,0
2016-05-24T02:33:49.333Z,0
2016-05-24T02:34:49.179Z,0
2016-05-24T02:35:49.354Z,0
2016-05-24T02:36:49.388Z,0
2016-05-24T02:37:49.375Z,0
2016-05-24T02:38:49.236Z,0
2016-05-24T02:39:49.255Z,0
2016-05-24T02:40:49.258Z,0
2016-05-24T02:41:49.402Z,0
2016-05-24T02:42:49.280Z,0
2016-05-24T02:43:49.266Z,0
2016-05-24T02:44:48.956Z,0
2016-05-24T02:45:49.349Z,0
2016-05-24T02:46:49.337Z,0
2016-05-24T02:47:49.449Z,0
2016-05-24T02:48:49.358Z,0
2016-05-24T02:49:49.313Z,0
2016-05-24T02:50:49.504Z,0
2016-05-24T02:51:49.396Z,0
2016-05-24T02:52:49.446Z,0
2016-05-24T02:53:49.621Z,0
2016-05-24T02:54:49.437Z,0
2016-05-24T02:55:49.532Z,0
2016-05-24T02:56:49.551Z,0
2016-05-24T02:57:49.429Z,0
2016-05-24T02:58:49.245Z,0
2016-05-24T02:59:50.059Z,0
2016-05-24T03:00:49.453Z,0
2016-05-24T03:01:49.455Z,0
2016-05-24T03:02:49.614Z,0
2016-05-24T03:03:49.476Z,0
2016-05-24T03:04:49.495Z,0
2016-05-24T03:05:49.622Z,0
2016-05-24T03:06:49.656Z,0
2016-05-24T03:07:49.706Z,0
2016-05-24T03:08:49.536Z,0
2016-05-24T03:09:49.680Z,0
2016-05-24T03:10:49.698Z,0
2016-05-24T03:11:49.529Z,0
2016-05-24T03:12:49.547Z,0
2016-05-24T03:13:49.565Z,0
2016-05-24T03:14:49.599Z,0
2016-05-24T03:15:49.743Z,0
2016-05-24T03:16:49.730Z,0
2016-05-24T03:17:49.608Z,0
2016-05-24T03:18:49.626Z,0
2016-05-24T03:19:49.612Z,0
2016-05-24T03:20:49.474Z,0
2016-05-24T03:21:49.649Z,0
2016-05-24T03:22:49.652Z,0
2016-05-24T03:23:49.812Z,0
2016-05-24T03:24:49.657Z,0
2016-05-24T03:25:49.817Z,0
2016-05-24T03:26:49.695Z,0
2016-05-24T03:27:49.853Z,0
2016-05-24T03:28:49.840Z,0
2016-05-24T03:29:50.874Z,0
2016-05-24T03:30:49.564Z,0
2016-05-24T03:31:49.754Z,0
2016-05-24T03:32:49.882Z,0
2016-05-24T03:33:49.916Z,0
2016-05-24T03:34:49.903Z,0
2016-05-24T03:35:49.906Z,0
2016-05-24T03:36:49.924Z,0
2016-05-24T03:37:49.959Z,0
2016-05-24T03:38:49.945Z,0
2016-05-24T03:39:49.808Z,0
2016-05-24T03:40:49.810Z,0
2016-05-24T03:41:49.969Z,0
2016-05-24T03:42:49.846Z,0
2016-05-24T03:43:49.991Z,0
2016-05-24T03:44:50.399Z,0
2016-05-24T03:45:49.996Z,0
2016-05-24T03:46:50.044Z,0
2016-05-24T03:47:50.032Z,0
2016-05-24T03:48:50.065Z,0
2016-05-24T03:49:50.038Z,0
2016-05-24T03:50:49.759Z,0
2016-05-24T03:51:50.074Z,0
2016-05-24T03:52:50.076Z,0
2016-05-24T03:53:49.924Z,0
2016-05-24T03:54:50.113Z,0
2016-05-24T03:55:50.101Z,0
2016-05-24T03:56:49.946Z,0
2016-05-24T03:57:49.949Z,0
2016-05-24T03:58:50.124Z,0
2016-05-24T03:59:50.673Z,0
2016-05-24T04:00:50.161Z,0
2016-05-24T04:01:49.992Z,0
2016-05-24T04:02:50.166Z,0
2016-05-24T04:03:50.012Z,0
2016-05-24T04:04:50.031Z,0
2016-05-24T04:05:50.018Z,0
2016-05-24T04:06:50.083Z,0
2016-05-24T04:07:50.195Z,0
2016-05-24T04:08:50.244Z,0
2016-05-24T04:09:50.231Z,0
2016-05-24T04:10:50.234Z,0
2016-05-24T04:11:50.097Z,0
2016-05-24T04:12:49.974Z,0
2016-05-24T04:13:50.117Z,0
2016-05-24T04:14:50.166Z,0
2016-05-24T04:15:50.138Z,0
2016-05-24T04:16:50.126Z,0
2016-05-24T04:17:50.160Z,0
2016-05-24T04:18:50.335Z,0
2016-05-24T04:19:50.180Z,0
2016-05-24T04:20:50.198Z,0
2016-05-24T04:21:50.186Z,0
2016-05-24T04:22:50.391Z,0
2016-05-24T04:23:50.363Z,0
2016-05-24T04:24:50.476Z,0
2016-05-24T04:25:50.368Z,0
2016-05-24T04:26:50.371Z,0
2016-05-24T04:27:50.404Z,0
2016-05-24T04:28:50.424Z,0
2016-05-24T04:29:50.989Z,0
2016-05-24T04:30:50.413Z,0
2016-05-24T04:31:50.447Z,0
2016-05-24T04:32:50.465Z,0
2016-05-24T04:33:50.296Z,0
2016-05-24T04:34:50.487Z,0
2016-05-24T04:35:50.161Z,0
2016-05-24T04:36:50.492Z,0
2016-05-24T04:37:50.478Z,0
2016-05-24T04:38:50.231Z,0
2016-05-24T04:39:50.500Z,0
2016-05-24T04:40:50.394Z,0
2016-05-24T04:41:50.364Z,0
2016-05-24T04:42:50.524Z,0
2016-05-24T04:43:50.385Z,0
2016-05-24T04:44:50.576Z,0
2016-05-24T04:45:50.625Z,0
2016-05-24T04:46:50.597Z,0
2016-05-24T04:47:50.599Z,0
2016-05-24T04:48:50.446Z,0
2016-05-24T04:49:50.432Z,0
2016-05-24T04:50:50.624Z,0
2016-05-24T04:51:50.455Z,0
2016-05-24T04:52:50.644Z,0
2016-05-24T04:53:50.474Z,0
2016-05-24T04:54:50.524Z,0
2016-05-24T04:55:50.637Z,0
2016-05-24T04:56:50.671Z,0
2016-05-24T04:57:50.658Z,0
2016-05-24T04:58:50.676Z,0
2016-05-24T04:59:50.709Z,0
2016-05-24T05:00:50.416Z,0
2016-05-24T05:01:50.731Z,0
2016-05-24T05:02:50.718Z,0
2016-05-24T05:03:50.721Z,0
2016-05-24T05:04:50.739Z,0
2016-05-24T05:05:50.773Z,0
2016-05-24T05:06:50.603Z,0
2016-05-24T05:07:50.794Z,0
2016-05-24T05:08:50.781Z,0
2016-05-24T05:09:50.815Z,0
2016-05-24T05:10:50.786Z,0
2016-05-24T05:11:50.820Z,0
2016-05-24T05:12:50.667Z,0
2016-05-24T05:13:50.826Z,0
2016-05-24T05:14:50.844Z,0
2016-05-24T05:15:50.409Z,0
2016-05-24T05:16:50.693Z,0
2016-05-24T05:17:50.883Z,0
2016-05-24T05:18:50.871Z,0
2016-05-24T05:19:50.717Z,0
2016-05-24T05:20:50.876Z,0
2016-05-24T05:21:50.910Z,0
2016-05-24T05:22:50.741Z,0
2016-05-24T05:23:50.963Z,0
2016-05-24T05:24:50.917Z,0
2016-05-24T05:25:50.796Z,0
2016-05-24T05:26:50.783Z,0
2016-05-24T05:27:50.941Z,0
2016-05-24T05:28:50.959Z,0
2016-05-24T05:29:50.837Z,0
2016-05-24T05:30:51.090Z,0
2016-05-24T05:31:50.859Z,0
2016-05-24T05:32:51.017Z,0
2016-05-24T05:33:50.990Z,0
2016-05-24T05:34:50.867Z,0
2016-05-24T05:35:51.041Z,0
2016-05-24T05:36:50.716Z,0
2016-05-24T05:37:50.922Z,0
2016-05-24T05:38:51.049Z,0
2016-05-24T05:39:50.942Z,0
2016-05-24T05:40:50.914Z,0
2016-05-24T05:41:50.948Z,0
2016-05-24T05:42:51.075Z,0
2016-05-24T05:43:50.797Z,0
2016-05-24T05:44:50.956Z,0
2016-05-24T05:45:51.161Z,0
2016-05-24T05:46:51.133Z,0
2016-05-24T05:47:51.151Z,0
2016-05-24T05:48:50.826Z,0
2016-05-24T05:49:51.158Z,0
2016-05-24T05:50:51.035Z,0
2016-05-24T05:51:51.178Z,0
2016-05-24T05:52:51.212Z,5
2016-05-24T05:53:51.027Z,0
2016-05-24T05:54:51.076Z,0
2016-05-24T05:55:51.235Z,0
2016-05-24T05:56:51.238Z,0
2016-05-24T05:57:51.210Z,0
2016-05-24T05:58:51.274Z,0
2016-05-24T05:59:51.621Z,0
2016-05-24T06:00:51.609Z,0
2016-05-24T06:01:51.251Z,0
2016-05-24T06:02:51.129Z,0
2016-05-24T06:03:51.287Z,5
2016-05-24T06:04:51.323Z,5
2016-05-24T06:05:51.137Z,5
2016-05-24T06:06:51.171Z,5
2016-05-24T06:07:51.158Z,5
2016-05-24T06:08:51.192Z,5
2016-05-24T06:09:51.335Z,5
2016-05-24T06:10:51.338Z,5
2016-05-24T06:11:51.764Z,5
2016-05-24T06:12:51.719Z,5
2016-05-24T06:13:51.127Z,5
2016-05-24T06:14:51.287Z,5
2016-05-24T06:15:54.492Z,5
2016-05-24T06:16:55.291Z,5
2016-05-24T06:17:51.325Z,5
2016-05-24T06:18:51.282Z,5
2016-05-24T06:19:51.269Z,5
2016-05-24T06:20:51.428Z,5
2016-05-24T06:21:51.446Z,5
2016-05-24T06:22:51.464Z,5
2016-05-24T06:23:51.466Z,5
2016-05-24T06:24:51.501Z,0
2016-05-24T06:25:51.472Z,5
2016-05-24T06:26:51.350Z,0
2016-05-24T06:27:51.509Z,5
2016-05-24T06:28:51.355Z,0
2016-05-24T06:29:52.062Z,0
2016-05-24T06:30:51.735Z,0
2016-05-24T06:31:51.567Z,5
2016-05-24T06:32:51.382Z,5
2016-05-24T06:33:51.416Z,5
2016-05-24T06:34:51.590Z,5
2016-05-24T06:35:51.593Z,5
2016-05-24T06:36:51.424Z,5
2016-05-24T06:37:51.583Z,5
2016-05-24T06:38:51.632Z,5
2016-05-24T06:39:51.620Z,5
2016-05-24T06:40:51.638Z,5
2016-05-24T06:41:51.640Z,5
2016-05-24T06:42:51.658Z,5
2016-05-24T06:43:51.489Z,0
2016-05-24T06:44:52.195Z,5
2016-05-24T06:45:51.901Z,5
2016-05-24T06:46:51.545Z,5
2016-05-24T06:47:51.688Z,5
2016-05-24T06:48:51.722Z,0
2016-05-24T06:49:51.694Z,0
2016-05-24T06:50:51.556Z,5
2016-05-24T06:51:51.730Z,5
2016-05-24T06:52:51.608Z,5
2016-05-24T06:53:51.751Z,0
2016-05-24T06:54:51.785Z,5
2016-05-24T06:55:51.788Z,0
2016-05-24T06:56:51.837Z,0
2016-05-24T06:57:51.762Z,0
2016-05-24T06:58:51.827Z,0
2016-05-24T06:59:51.846Z,0
2016-05-24T07:00:51.692Z,0
2016-05-24T07:01:51.694Z,0
2016-05-24T07:02:51.729Z,0
2016-05-24T07:03:51.684Z,0
2016-05-24T07:04:51.859Z,0
2016-05-24T07:05:51.705Z,5
2016-05-24T07:06:51.895Z,5
2016-05-24T07:07:51.882Z,5
2016-05-24T07:08:51.885Z,5
2016-05-24T07:09:51.920Z,5
2016-05-24T07:10:51.906Z,5
2016-05-24T07:11:51.893Z,10
2016-05-24T07:12:51.943Z,10
2016-05-24T07:13:51.649Z,10
2016-05-24T07:14:51.604Z,10
2016-05-24T07:15:52.310Z,10
2016-05-24T07:16:51.797Z,10
2016-05-24T07:17:51.987Z,15
2016-05-24T07:18:51.974Z,15
2016-05-24T07:19:52.086Z,15
2016-05-24T07:20:51.995Z,15
2016-05-24T07:21:51.889Z,15
2016-05-24T07:22:52.047Z,15
2016-05-24T07:23:52.097Z,15
2016-05-24T07:24:51.772Z,15
2016-05-24T07:25:52.041Z,20
2016-05-24T07:26:52.074Z,20
2016-05-24T07:27:52.155Z,15
2016-05-24T07:28:51.955Z,15
2016-05-24T07:29:52.504Z,15
2016-05-24T07:30:51.882Z,15
2016-05-24T07:31:51.946Z,15
2016-05-24T07:32:51.762Z,15
2016-05-24T07:33:51.952Z,15
2016-05-24T07:34:51.955Z,15
2016-05-24T07:35:52.192Z,15
2016-05-24T07:36:52.132Z,15
2016-05-24T07:37:52.151Z,15
2016-05-24T07:38:52.154Z,15
2016-05-24T07:39:52.156Z,15
2016-05-24T07:40:52.159Z,15
2016-05-24T07:41:52.239Z,15
2016-05-24T07:42:52.179Z,15
2016-05-24T07:43:52.214Z,15
2016-05-24T07:44:52.544Z,15
2016-05-24T07:45:51.798Z,15
2016-05-24T07:46:52.206Z,15
2016-05-24T07:47:52.317Z,15
2016-05-24T07:48:51.915Z,15
2016-05-24T07:49:52.152Z,15
2016-05-24T07:50:52.186Z,15
2016-05-24T07:51:52.251Z,15
2016-05-24T07:52:52.113Z,15
2016-05-24T07:53:52.366Z,15
2016-05-24T07:54:52.290Z,15
2016-05-24T07:55:52.152Z,15
2016-05-24T07:56:52.217Z,15
2016-05-24T07:57:52.111Z,15
2016-05-24T07:58:52.394Z,15
2016-05-24T07:59:52.194Z,15
2016-05-24T08:00:52.196Z,15
2016-05-24T08:01:52.355Z,15
2016-05-24T08:02:52.452Z,15
2016-05-24T08:03:52.361Z,15
2016-05-24T08:04:52.224Z,15
2016-05-24T08:05:52.257Z,15
2016-05-24T08:06:52.119Z,15
2016-05-24T08:07:52.246Z,15
2016-05-24T08:08:52.406Z,10
2016-05-24T08:09:52.440Z,15
2016-05-24T08:10:52.427Z,15
2016-05-24T08:11:52.132Z,15
2016-05-24T08:12:52.323Z,15
2016-05-24T08:13:52.560Z,15
2016-05-24T08:14:52.312Z,15
2016-05-24T08:15:52.347Z,15
2016-05-24T08:16:52.334Z,15
2016-05-24T08:17:52.603Z,15
2016-05-24T08:18:52.526Z,15
2016-05-24T08:19:52.544Z,15
2016-05-24T08:20:52.610Z,15
2016-05-24T08:21:52.410Z,15
2016-05-24T08:22:52.584Z,15
2016-05-24T08:23:52.572Z,15
2016-05-24T08:24:52.481Z,15
2016-05-24T08:25:52.592Z,15
2016-05-24T08:26:52.594Z,15
2016-05-24T08:27:52.675Z,15
2016-05-24T08:28:52.600Z,15
2016-05-24T08:29:52.463Z,15
2016-05-24T08:30:52.918Z,15
2016-05-24T08:31:52.483Z,15
2016-05-24T08:32:52.533Z,15
2016-05-24T08:33:52.645Z,15
2016-05-24T08:34:52.507Z,15
2016-05-24T08:35:52.838Z,15
2016-05-24T08:36:52.669Z,15
2016-05-24T08:37:52.718Z,15
2016-05-24T08:38:52.627Z,15
2016-05-24T08:39:52.442Z,15
2016-05-24T08:40:52.695Z,15
2016-05-24T08:41:52.823Z,20
2016-05-24T08:42:52.763Z,15
2016-05-24T08:43:52.829Z,15
2016-05-24T08:44:52.596Z,15
2016-05-24T08:45:53.443Z,15
2016-05-24T08:46:52.883Z,20
2016-05-24T08:47:52.823Z,20
2016-05-24T08:48:52.575Z,20
2016-05-24T08:49:52.641Z,15
2016-05-24T08:50:52.832Z,15
2016-05-24T08:51:52.881Z,15
2016-05-24T08:52:52.836Z,15
2016-05-24T08:53:52.980Z,20
2016-05-24T08:54:52.873Z,15
2016-05-24T08:55:52.844Z,20
2016-05-24T08:56:52.895Z,20
2016-05-24T08:57:52.725Z,15
2016-05-24T08:58:53.009Z,15
2016-05-24T08:59:52.918Z,20
2016-05-24T09:00:55.686Z,15
2016-05-24T09:01:52.939Z,15
2016-05-24T09:02:52.941Z,20
2016-05-24T09:03:52.805Z,15
2016-05-24T09:04:52.900Z,20
2016-05-24T09:05:52.856Z,20
2016-05-24T09:06:53.015Z,20
2016-05-24T09:07:52.955Z,20
2016-05-24T09:08:53.083Z,20
2016-05-24T09:09:53.007Z,20
2016-05-24T09:10:52.901Z,20
2016-05-24T09:11:53.060Z,20
2016-05-24T09:12:53.126Z,20
2016-05-24T09:13:53.034Z,20
2016-05-24T09:14:53.052Z,20
2016-05-24T09:15:58.274Z,20
2016-05-24T09:16:52.761Z,20
2016-05-24T09:17:53.092Z,20
2016-05-24T09:18:53.094Z,20
2016-05-24T09:19:53.097Z,20
2016-05-24T09:20:55.350Z,15
2016-05-24T09:21:52.978Z,15
2016-05-24T09:22:53.167Z,20
2016-05-24T09:23:53.155Z,15
2016-05-24T09:24:52.986Z,15
2016-05-24T09:25:54.770Z,15
2016-05-24T09:26:52.991Z,20
2016-05-24T09:27:53.071Z,20
2016-05-24T09:28:53.184Z,20
2016-05-24T09:29:53.155Z,20
2016-05-24T09:30:55.002Z,20
2016-05-24T09:31:52.770Z,20
2016-05-24T09:32:53.304Z,20
2016-05-24T09:33:53.244Z,20
2016-05-24T09:34:53.263Z,20
2016-05-24T09:35:55.155Z,20
2016-05-24T09:36:53.220Z,20
2016-05-24T09:37:53.193Z,20
2016-05-24T09:38:53.101Z,20
2016-05-24T09:39:53.354Z,20
2016-05-24T09:40:53.154Z,20
2016-05-24T09:41:53.156Z,20
2016-05-24T09:42:53.159Z,20
2016-05-24T09:43:53.318Z,20
2016-05-24T09:44:53.336Z,20
2016-05-24T09:45:55.370Z,20
2016-05-24T09:46:53.403Z,20
2016-05-24T09:47:53.266Z,20
2016-05-24T09:48:53.223Z,20
2016-05-24T09:49:53.380Z,25
2016-05-24T09:50:53.274Z,20
2016-05-24T09:51:53.276Z,20
2016-05-24T09:52:53.404Z,20
2016-05-24T09:53:53.564Z,20
2016-05-24T09:54:53.441Z,20
2016-05-24T09:55:53.303Z,25
2016-05-24T09:56:53.478Z,25
2016-05-24T09:57:53.496Z,25
2016-05-24T09:58:53.311Z,25
2016-05-24T09:59:53.470Z,25
2016-05-24T10:00:53.614Z,30
2016-05-24T10:01:53.241Z,30
2016-05-24T10:02:53.510Z,30
2016-05-24T10:03:53.513Z,30
2016-05-24T10:04:53.593Z,30
2016-05-24T10:05:53.376Z,25
2016-05-24T10:06:53.440Z,30
2016-05-24T10:07:53.371Z,30
2016-05-24T10:08:53.598Z,30
2016-05-24T10:09:53.654Z,30
2016-05-24T10:10:53.789Z,30
2016-05-24T10:11:53.788Z,30
2016-05-24T10:12:53.752Z,30
2016-05-24T10:13:53.591Z,30
2016-05-24T10:14:53.773Z,30
2016-05-24T10:15:53.848Z,30
2016-05-24T10:16:53.652Z,30
2016-05-24T10:17:53.798Z,35
2016-05-24T10:18:53.975Z,35
2016-05-24T10:19:53.761Z,35
2016-05-24T10:20:55.049Z,40
2016-05-24T10:21:53.850Z,40
2016-05-24T10:22:53.713Z,40
2016-05-24T10:23:53.717Z,45
2016-05-24T10:24:53.595Z,40
2016-05-24T10:25:53.990Z,35
2016-05-24T10:26:53.915Z,30
2016-05-24T10:27:53.950Z,30
2016-05-24T10:28:53.953Z,30
2016-05-24T10:29:53.784Z,25
2016-05-24T10:30:54.224Z,25
2016-05-24T10:31:55.290Z,25
2016-05-24T10:32:54.058Z,20
2016-05-24T10:33:53.967Z,25
2016-05-24T10:34:54.001Z,20
2016-05-24T10:35:53.706Z,20
2016-05-24T10:36:54.568Z,20
2016-05-24T10:37:54.040Z,20
2016-05-24T10:38:53.981Z,20
2016-05-24T10:39:54.076Z,20
2016-05-24T10:40:54.033Z,20
2016-05-24T10:41:54.270Z,20
2016-05-24T10:42:54.100Z,20
2016-05-24T10:43:53.775Z,20
2016-05-24T10:44:54.200Z,20
2016-05-24T10:45:54.233Z,25
2016-05-24T10:46:55.689Z,30
2016-05-24T10:47:53.802Z,30
2016-05-24T10:48:53.992Z,30
2016-05-24T10:49:53.853Z,30
2016-05-24T10:50:54.138Z,25
2016-05-24T10:51:55.328Z,25
2016-05-24T10:52:54.190Z,25
2016-05-24T10:53:54.036Z,25
2016-05-24T10:54:54.116Z,25
2016-05-24T10:55:54.213Z,30
2016-05-24T10:56:54.060Z,30
2016-05-24T10:57:54.250Z,30
2016-05-24T10:58:54.206Z,25
2016-05-24T10:59:54.115Z,30
2016-05-24T11:00:54.289Z,30
2016-05-24T11:01:54.902Z,30
2016-05-24T11:02:54.185Z,20
2016-05-24T11:03:54.220Z,20
2016-05-24T11:04:54.160Z,20
2016-05-24T11:05:54.365Z,20
2016-05-24T11:06:55.384Z,20
2016-05-24T11:07:54.059Z,15
2016-05-24T11:08:54.029Z,15
2016-05-24T11:09:54.189Z,20
2016-05-24T11:10:54.348Z,20
2016-05-24T11:11:55.350Z,20
2016-05-24T11:12:54.228Z,15
2016-05-24T11:13:54.230Z,15
2016-05-24T11:14:54.437Z,15
2016-05-24T11:15:54.595Z,15
2016-05-24T11:16:55.816Z,15
2016-05-24T11:17:54.164Z,15
2016-05-24T11:18:54.400Z,15
2016-05-24T11:19:54.294Z,15
2016-05-24T11:20:54.437Z,10
2016-05-24T11:21:56.611Z,15
2016-05-24T11:22:54.505Z,15
2016-05-24T11:23:54.586Z,15
2016-05-24T11:24:54.322Z,10
2016-05-24T11:25:54.591Z,15
2016-05-24T11:26:54.485Z,15
2016-05-24T11:27:54.502Z,15
2016-05-24T11:28:54.505Z,15
2016-05-24T11:29:54.461Z,15
2016-05-24T11:30:54.824Z,15
2016-05-24T11:31:54.560Z,15
2016-05-24T11:32:54.407Z,15
2016-05-24T11:33:54.426Z,15
2016-05-24T11:34:54.569Z,10
2016-05-24T11:35:54.774Z,10
2016-05-24T11:36:54.448Z,15
2016-05-24T11:37:54.592Z,15
2016-05-24T11:38:54.673Z,10
2016-05-24T11:39:54.629Z,10
2016-05-24T11:40:54.631Z,10
2016-05-24T11:41:54.634Z,5
2016-05-24T11:42:54.543Z,10
2016-05-24T11:43:54.561Z,15
2016-05-24T11:44:54.595Z,15
2016-05-24T11:45:54.550Z,20
2016-05-24T11:46:54.694Z,20
2016-05-24T11:47:54.588Z,20
2016-05-24T11:48:54.700Z,20
2016-05-24T11:49:54.578Z,20
2016-05-24T11:50:54.503Z,25
2016-05-24T11:51:54.769Z,25
2016-05-24T11:52:54.867Z,25
2016-05-24T11:53:54.620Z,25
2016-05-24T11:54:54.872Z,25
2016-05-24T11:55:54.735Z,25
2016-05-24T11:56:54.815Z,25
2016-05-24T11:57:54.943Z,25
2016-05-24T11:58:54.868Z,25
2016-05-24T11:59:54.838Z,25
2016-05-24T12:00:55.091Z,25
2016-05-24T12:01:54.860Z,20
2016-05-24T12:02:54.940Z,20
2016-05-24T12:03:54.881Z,20
2016-05-24T12:04:55.040Z,20
2016-05-24T12:05:54.746Z,15
2016-05-24T12:06:54.889Z,20
2016-05-24T12:07:55.095Z,25
2016-05-24T12:08:54.754Z,25
2016-05-24T12:09:54.960Z,25
2016-05-24T12:10:54.790Z,20
2016-05-24T12:11:54.824Z,20
2016-05-24T12:12:54.764Z,20
2016-05-24T12:13:54.954Z,25
2016-05-24T12:14:55.020Z,25
2016-05-24T12:15:55.694Z,25
2016-05-24T12:16:55.072Z,25
2016-05-24T12:17:54.840Z,25
2016-05-24T12:18:54.953Z,25
2016-05-24T12:19:54.955Z,25
2016-05-24T12:20:55.035Z,20
2016-05-24T12:21:55.055Z,20
2016-05-24T12:22:55.072Z,25
2016-05-24T12:23:55.091Z,25
2016-05-24T12:24:55.093Z,25
2016-05-24T12:25:54.909Z,20
2016-05-24T12:26:55.099Z,15
2016-05-24T12:27:54.991Z,20
2016-05-24T12:28:54.838Z,20
2016-05-24T12:29:54.966Z,15
2016-05-24T12:30:55.672Z,20
2016-05-24T12:31:55.144Z,20
2016-05-24T12:32:55.162Z,25
2016-05-24T12:33:55.071Z,20
2016-05-24T12:34:55.027Z,20
2016-05-24T12:35:55.171Z,25
2016-05-24T12:36:55.204Z,25
2016-05-24T12:37:55.191Z,25
2016-05-24T12:38:55.318Z,25
2016-05-24T12:39:55.056Z,25
2016-05-24T12:40:55.309Z,25
2016-05-24T12:41:54.936Z,25
2016-05-24T12:42:55.251Z,25
2016-05-24T12:43:55.269Z,25
2016-05-24T12:44:57.741Z,25
2016-05-24T12:45:55.682Z,30
2016-05-24T12:46:55.137Z,30
2016-05-24T12:47:55.311Z,35
2016-05-24T12:48:55.298Z,35
2016-05-24T12:49:56.145Z,35
2016-05-24T12:50:55.429Z,35
2016-05-24T12:51:55.339Z,30
2016-05-24T12:52:55.919Z,30
2016-05-24T12:53:55.203Z,30
2016-05-24T12:54:55.425Z,25
2016-05-24T12:55:55.067Z,20
2016-05-24T12:56:55.399Z,20
2016-05-24T12:57:55.244Z,25
2016-05-24T12:58:55.341Z,25
2016-05-24T12:59:58.250Z,20
2016-05-24T13:00:55.909Z,25
2016-05-24T13:01:55.458Z,25
2016-05-24T13:02:55.321Z,20
2016-05-24T13:03:55.463Z,20
2016-05-24T13:04:55.560Z,25
2016-05-24T13:05:55.469Z,25
2016-05-24T13:06:55.347Z,25
2016-05-24T13:07:55.506Z,25
2016-05-24T13:08:55.524Z,20
2016-05-24T13:09:56.167Z,20
2016-05-24T13:10:55.546Z,25
2016-05-24T13:11:55.407Z,25
2016-05-24T13:12:55.848Z,25
2016-05-24T13:13:55.460Z,25
2016-05-24T13:14:55.572Z,25
2016-05-24T13:15:55.434Z,25
2016-05-24T13:16:55.592Z,20
2016-05-24T13:17:55.595Z,25
2016-05-24T13:18:55.817Z,20
2016-05-24T13:19:55.711Z,25
2016-05-24T13:20:55.509Z,20
2016-05-24T13:21:55.325Z,25
2016-05-24T13:22:55.764Z,20
2016-05-24T13:23:55.502Z,20
2016-05-24T13:24:55.395Z,25
2016-05-24T13:25:55.522Z,25
2016-05-24T13:26:55.698Z,25
2016-05-24T13:27:55.576Z,25
2016-05-24T13:28:55.594Z,25
2016-05-24T13:29:55.706Z,25
2016-05-24T13:30:56.177Z,20
2016-05-24T13:31:55.133Z,20
2016-05-24T13:32:55.621Z,20
2016-05-24T13:33:55.794Z,20
2016-05-24T13:34:55.610Z,20
2016-05-24T13:35:55.816Z,20
2016-05-24T13:36:55.787Z,20
2016-05-24T13:37:55.821Z,20
2016-05-24T13:38:55.871Z,20
2016-05-24T13:39:55.779Z,20
2016-05-24T13:40:55.845Z,20
2016-05-24T13:41:55.895Z,20
2016-05-24T13:42:55.834Z,20
2016-05-24T13:43:55.962Z,20
2016-05-24T13:44:55.902Z,20
2016-05-24T13:45:55.858Z,20
2016-05-24T13:46:55.893Z,15
2016-05-24T13:47:55.957Z,15
2016-05-24T13:48:56.006Z,20
2016-05-24T13:49:55.931Z,20
2016-05-24T13:50:55.981Z,15
2016-05-24T13:51:55.967Z,15
2016-05-24T13:52:55.799Z,20
2016-05-24T13:53:55.989Z,20
2016-05-24T13:54:55.992Z,20
2016-05-24T13:55:55.994Z,20
2016-05-24T13:56:56.263Z,25
2016-05-24T13:57:55.827Z,25
2016-05-24T13:58:55.721Z,30
2016-05-24T13:59:55.896Z,30
2016-05-24T14:00:56.258Z,30
2016-05-24T14:01:56.261Z,30
2016-05-24T14:02:56.122Z,35
2016-05-24T14:03:56.078Z,40
2016-05-24T14:04:56.425Z,40
2016-05-24T14:05:56.194Z,40
2016-05-24T14:06:56.165Z,45
2016-05-24T14:07:56.418Z,45
2016-05-24T14:08:55.967Z,45
2016-05-24T14:09:56.282Z,40
2016-05-24T14:10:56.332Z,35
2016-05-24T14:11:56.021Z,40
2016-05-24T14:12:56.181Z,35
2016-05-24T14:13:56.042Z,35
2016-05-24T14:14:56.170Z,30
2016-05-24T14:15:55.923Z,25
2016-05-24T14:16:56.098Z,30
2016-05-24T14:17:56.382Z,35
2016-05-24T14:18:56.244Z,35
2016-05-24T14:19:56.528Z,35
2016-05-24T14:20:56.234Z,40
2016-05-24T14:21:56.440Z,35
2016-05-24T14:22:56.130Z,35
2016-05-24T14:23:56.148Z,35
2016-05-24T14:24:56.354Z,30
2016-05-24T14:25:56.294Z,30
2016-05-24T14:26:56.531Z,30
2016-05-24T14:27:56.300Z,30
2016-05-24T14:28:56.333Z,30
2016-05-24T14:29:56.633Z,30
2016-05-24T14:30:56.307Z,25
2016-05-24T14:31:56.357Z,25